sensor_id;sensor_type;location;lat;lon;timestamp;pressure;altitude;pressure_sealevel;temperature
69704;BMP280;56967;43.538;-5.646;2022-07-29T00:00:41;101640.16;;;36.52
69704;BMP280;56967;43.538;-5.646;2022-07-29T00:03:10;101644.06;;;36.15
69704;BMP280;56967;43.538;-5.646;2022-07-29T00:05:38;101635.00;;;35.74
69704;BMP280;56967;43.538;-5.646;2022-07-29T00:08:03;101636.88;;;35.66
69704;BMP280;56967;43.538;-5.646;2022-07-29T00:10:29;101635.00;;;35.44
69704;BMP280;56967;43.538;-5.646;2022-07-29T00:12:55;101630.50;;;35.89
69704;BMP280;56967;43.538;-5.646;2022-07-29T00:15:20;101628.06;;;36.20
69704;BMP280;56967;43.538;-5.646;2022-07-29T00:17:45;101632.63;;;36.06
69704;BMP280;56967;43.538;-5.646;2022-07-29T00:20:11;101630.97;;;35.94
69704;BMP280;56967;43.538;-5.646;2022-07-29T00:22:38;101630.66;;;36.43
69704;BMP280;56967;43.538;-5.646;2022-07-29T00:25:04;101632.41;;;35.85
69704;BMP280;56967;43.538;-5.646;2022-07-29T00:27:29;101631.59;;;36.17
69704;BMP280;56967;43.538;-5.646;2022-07-29T00:29:55;101624.72;;;36.37
69704;BMP280;56967;43.538;-5.646;2022-07-29T00:32:20;101629.69;;;35.55
69704;BMP280;56967;43.538;-5.646;2022-07-29T00:34:46;101622.75;;;35.35
69704;BMP280;56967;43.538;-5.646;2022-07-29T00:37:30;101623.88;;;35.60
69704;BMP280;56967;43.538;-5.646;2022-07-29T00:39:55;101615.81;;;36.07
69704;BMP280;56967;43.538;-5.646;2022-07-29T00:42:21;101612.53;;;35.91
69704;BMP280;56967;43.538;-5.646;2022-07-29T00:44:46;101613.59;;;36.20
69704;BMP280;56967;43.538;-5.646;2022-07-29T00:47:12;101609.97;;;36.09
69704;BMP280;56967;43.538;-5.646;2022-07-29T00:49:39;101615.25;;;36.28
69704;BMP280;56967;43.538;-5.646;2022-07-29T00:52:06;101606.84;;;36.10
69704;BMP280;56967;43.538;-5.646;2022-07-29T00:54:32;101609.41;;;36.29
69704;BMP280;56967;43.538;-5.646;2022-07-29T00:56:58;101608.25;;;36.34
69704;BMP280;56967;43.538;-5.646;2022-07-29T00:59:25;101619.94;;;35.57
69704;BMP280;56967;43.538;-5.646;2022-07-29T01:01:52;101604.59;;;35.49
69704;BMP280;56967;43.538;-5.646;2022-07-29T01:04:18;101609.31;;;35.82
69704;BMP280;56967;43.538;-5.646;2022-07-29T01:06:43;101601.59;;;35.95
69704;BMP280;56967;43.538;-5.646;2022-07-29T01:09:10;101601.72;;;36.05
69704;BMP280;56967;43.538;-5.646;2022-07-29T01:11:36;101596.78;;;36.21
69704;BMP280;56967;43.538;-5.646;2022-07-29T01:14:02;101600.63;;;36.60
69704;BMP280;56967;43.538;-5.646;2022-07-29T01:16:31;101602.19;;;36.58
69704;BMP280;56967;43.538;-5.646;2022-07-29T01:19:07;101595.59;;;36.69
69704;BMP280;56967;43.538;-5.646;2022-07-29T01:21:44;101591.59;;;36.60
69704;BMP280;56967;43.538;-5.646;2022-07-29T01:24:39;101593.88;;;36.04
69704;BMP280;56967;43.538;-5.646;2022-07-29T01:29:54;101601.47;;;36.21
69704;BMP280;56967;43.538;-5.646;2022-07-29T01:32:25;101597.41;;;36.04
69704;BMP280;56967;43.538;-5.646;2022-07-29T01:37:37;101600.78;;;35.57
69704;BMP280;56967;43.538;-5.646;2022-07-29T01:40:10;101599.44;;;35.44
69704;BMP280;56967;43.538;-5.646;2022-07-29T01:42:41;101607.72;;;35.81
69704;BMP280;56967;43.538;-5.646;2022-07-29T01:48:02;101598.16;;;36.01
69704;BMP280;56967;43.538;-5.646;2022-07-29T01:50:33;101607.75;;;35.22
69704;BMP280;56967;43.538;-5.646;2022-07-29T01:53:02;101609.00;;;35.91
69704;BMP280;56967;43.538;-5.646;2022-07-29T01:55:32;101604.06;;;36.03
69704;BMP280;56967;43.538;-5.646;2022-07-29T01:57:59;101609.44;;;35.96
69704;BMP280;56967;43.538;-5.646;2022-07-29T02:00:26;101608.53;;;36.22
69704;BMP280;56967;43.538;-5.646;2022-07-29T02:02:53;101607.56;;;35.70
69704;BMP280;56967;43.538;-5.646;2022-07-29T02:05:21;101604.56;;;35.79
69704;BMP280;56967;43.538;-5.646;2022-07-29T02:07:49;101602.13;;;36.07
69704;BMP280;56967;43.538;-5.646;2022-07-29T02:10:18;101606.22;;;35.24
69704;BMP280;56967;43.538;-5.646;2022-07-29T02:12:47;101613.22;;;34.96
69704;BMP280;56967;43.538;-5.646;2022-07-29T02:15:14;101610.47;;;35.81
69704;BMP280;56967;43.538;-5.646;2022-07-29T02:17:50;101607.69;;;36.14
69704;BMP280;56967;43.538;-5.646;2022-07-29T02:20:16;101597.53;;;36.62
69704;BMP280;56967;43.538;-5.646;2022-07-29T02:22:43;101600.69;;;36.67
69704;BMP280;56967;43.538;-5.646;2022-07-29T02:25:10;101596.44;;;36.73
69704;BMP280;56967;43.538;-5.646;2022-07-29T02:27:37;101601.41;;;36.57
69704;BMP280;56967;43.538;-5.646;2022-07-29T02:30:05;101603.69;;;35.68
69704;BMP280;56967;43.538;-5.646;2022-07-29T02:32:31;101613.41;;;35.36
69704;BMP280;56967;43.538;-5.646;2022-07-29T02:35:00;101603.09;;;35.26
69704;BMP280;56967;43.538;-5.646;2022-07-29T02:37:27;101616.56;;;35.12
69704;BMP280;56967;43.538;-5.646;2022-07-29T02:39:55;101611.50;;;35.40
69704;BMP280;56967;43.538;-5.646;2022-07-29T02:42:22;101615.28;;;35.61
69704;BMP280;56967;43.538;-5.646;2022-07-29T02:44:48;101615.19;;;34.99
69704;BMP280;56967;43.538;-5.646;2022-07-29T02:50:23;101605.66;;;34.86
69704;BMP280;56967;43.538;-5.646;2022-07-29T02:52:56;101610.59;;;35.58
69704;BMP280;56967;43.538;-5.646;2022-07-29T02:55:30;101605.91;;;35.29
69704;BMP280;56967;43.538;-5.646;2022-07-29T02:58:20;101615.56;;;34.71
69704;BMP280;56967;43.538;-5.646;2022-07-29T03:00:48;101613.63;;;34.98
69704;BMP280;56967;43.538;-5.646;2022-07-29T03:03:18;101615.25;;;35.02
69704;BMP280;56967;43.538;-5.646;2022-07-29T03:05:44;101614.44;;;34.98
69704;BMP280;56967;43.538;-5.646;2022-07-29T03:08:11;101613.84;;;35.12
69704;BMP280;56967;43.538;-5.646;2022-07-29T03:10:39;101626.06;;;35.18
69704;BMP280;56967;43.538;-5.646;2022-07-29T03:13:06;101622.00;;;35.34
69704;BMP280;56967;43.538;-5.646;2022-07-29T03:15:33;101621.00;;;35.49
69704;BMP280;56967;43.538;-5.646;2022-07-29T03:17:59;101623.81;;;35.53
69704;BMP280;56967;43.538;-5.646;2022-07-29T03:20:26;101618.72;;;35.25
69704;BMP280;56967;43.538;-5.646;2022-07-29T03:22:52;101620.31;;;35.56
69704;BMP280;56967;43.538;-5.646;2022-07-29T03:25:19;101626.56;;;35.01
69704;BMP280;56967;43.538;-5.646;2022-07-29T03:27:46;101615.47;;;34.90
69704;BMP280;56967;43.538;-5.646;2022-07-29T03:30:12;101615.84;;;35.44
69704;BMP280;56967;43.538;-5.646;2022-07-29T03:32:39;101614.31;;;35.47
69704;BMP280;56967;43.538;-5.646;2022-07-29T03:35:05;101615.16;;;35.51
69704;BMP280;56967;43.538;-5.646;2022-07-29T03:37:31;101609.00;;;35.57
69704;BMP280;56967;43.538;-5.646;2022-07-29T03:40:00;101613.63;;;35.24
69704;BMP280;56967;43.538;-5.646;2022-07-29T03:42:31;101612.31;;;35.73
69704;BMP280;56967;43.538;-5.646;2022-07-29T03:45:05;101609.34;;;35.86
69704;BMP280;56967;43.538;-5.646;2022-07-29T03:47:33;101615.75;;;35.67
69704;BMP280;56967;43.538;-5.646;2022-07-29T03:50:02;101612.88;;;35.90
69704;BMP280;56967;43.538;-5.646;2022-07-29T03:52:30;101616.31;;;34.94
69704;BMP280;56967;43.538;-5.646;2022-07-29T03:54:56;101610.59;;;33.93
69704;BMP280;56967;43.538;-5.646;2022-07-29T03:57:24;101611.25;;;34.96
69704;BMP280;56967;43.538;-5.646;2022-07-29T03:59:53;101620.50;;;34.88
69704;BMP280;56967;43.538;-5.646;2022-07-29T04:02:19;101617.06;;;35.17
69704;BMP280;56967;43.538;-5.646;2022-07-29T04:04:45;101608.53;;;35.52
69704;BMP280;56967;43.538;-5.646;2022-07-29T04:07:14;101613.03;;;35.67
69704;BMP280;56967;43.538;-5.646;2022-07-29T04:09:40;101614.69;;;35.75
69704;BMP280;56967;43.538;-5.646;2022-07-29T04:12:06;101614.53;;;35.98
69704;BMP280;56967;43.538;-5.646;2022-07-29T04:14:33;101614.22;;;36.03
69704;BMP280;56967;43.538;-5.646;2022-07-29T04:16:59;101616.34;;;35.24
69704;BMP280;56967;43.538;-5.646;2022-07-29T04:19:25;101615.75;;;36.00
69704;BMP280;56967;43.538;-5.646;2022-07-29T04:21:51;101610.44;;;36.14
69704;BMP280;56967;43.538;-5.646;2022-07-29T04:24:16;101620.25;;;35.23
69704;BMP280;56967;43.538;-5.646;2022-07-29T04:26:43;101607.47;;;35.30
69704;BMP280;56967;43.538;-5.646;2022-07-29T04:29:10;101623.28;;;35.44
69704;BMP280;56967;43.538;-5.646;2022-07-29T04:31:37;101620.16;;;34.67
69704;BMP280;56967;43.538;-5.646;2022-07-29T04:34:02;101618.72;;;34.99
69704;BMP280;56967;43.538;-5.646;2022-07-29T04:36:28;101616.63;;;35.41
69704;BMP280;56967;43.538;-5.646;2022-07-29T04:38:53;101619.22;;;35.97
69704;BMP280;56967;43.538;-5.646;2022-07-29T04:41:19;101619.97;;;36.31
69704;BMP280;56967;43.538;-5.646;2022-07-29T04:43:44;101620.50;;;36.47
69704;BMP280;56967;43.538;-5.646;2022-07-29T04:46:10;101615.09;;;36.54
69704;BMP280;56967;43.538;-5.646;2022-07-29T04:48:35;101620.25;;;36.62
69704;BMP280;56967;43.538;-5.646;2022-07-29T04:51:01;101616.50;;;36.37
69704;BMP280;56967;43.538;-5.646;2022-07-29T04:53:26;101615.28;;;36.31
69704;BMP280;56967;43.538;-5.646;2022-07-29T04:55:52;101620.91;;;36.45
69704;BMP280;56967;43.538;-5.646;2022-07-29T04:58:17;101633.69;;;36.34
69704;BMP280;56967;43.538;-5.646;2022-07-29T05:00:43;101629.31;;;36.66
69704;BMP280;56967;43.538;-5.646;2022-07-29T05:03:08;101630.41;;;36.55
69704;BMP280;56967;43.538;-5.646;2022-07-29T05:05:34;101628.47;;;36.62
69704;BMP280;56967;43.538;-5.646;2022-07-29T05:08:00;101629.19;;;36.52
69704;BMP280;56967;43.538;-5.646;2022-07-29T05:10:25;101638.41;;;36.77
69704;BMP280;56967;43.538;-5.646;2022-07-29T05:12:51;101641.97;;;36.88
69704;BMP280;56967;43.538;-5.646;2022-07-29T05:15:16;101634.78;;;36.66
69704;BMP280;56967;43.538;-5.646;2022-07-29T05:17:43;101640.78;;;36.35
69704;BMP280;56967;43.538;-5.646;2022-07-29T05:20:09;101650.91;;;36.75
69704;BMP280;56967;43.538;-5.646;2022-07-29T05:22:35;101653.03;;;35.78
69704;BMP280;56967;43.538;-5.646;2022-07-29T05:25:00;101653.06;;;36.52
69704;BMP280;56967;43.538;-5.646;2022-07-29T05:27:26;101660.41;;;36.41
69704;BMP280;56967;43.538;-5.646;2022-07-29T05:29:51;101672.50;;;36.36
69704;BMP280;56967;43.538;-5.646;2022-07-29T05:32:17;101666.19;;;36.32
69704;BMP280;56967;43.538;-5.646;2022-07-29T05:34:42;101666.97;;;36.76
69704;BMP280;56967;43.538;-5.646;2022-07-29T05:37:08;101675.13;;;36.26
69704;BMP280;56967;43.538;-5.646;2022-07-29T05:39:33;101668.66;;;36.08
69704;BMP280;56967;43.538;-5.646;2022-07-29T05:41:59;101678.28;;;35.95
69704;BMP280;56967;43.538;-5.646;2022-07-29T05:44:25;101676.50;;;36.09
69704;BMP280;56967;43.538;-5.646;2022-07-29T05:46:50;101678.16;;;36.17
69704;BMP280;56967;43.538;-5.646;2022-07-29T05:49:16;101686.56;;;35.68
69704;BMP280;56967;43.538;-5.646;2022-07-29T05:51:41;101684.53;;;35.62
69704;BMP280;56967;43.538;-5.646;2022-07-29T05:54:07;101686.50;;;35.95
69704;BMP280;56967;43.538;-5.646;2022-07-29T05:56:35;101691.84;;;35.84
69704;BMP280;56967;43.538;-5.646;2022-07-29T05:59:01;101696.94;;;35.82
69704;BMP280;56967;43.538;-5.646;2022-07-29T06:01:26;101700.13;;;36.64
69704;BMP280;56967;43.538;-5.646;2022-07-29T06:03:52;101707.81;;;36.92
69704;BMP280;56967;43.538;-5.646;2022-07-29T06:06:17;101709.97;;;36.65
69704;BMP280;56967;43.538;-5.646;2022-07-29T06:08:43;101716.44;;;36.10
69704;BMP280;56967;43.538;-5.646;2022-07-29T06:11:08;101713.31;;;36.45
69704;BMP280;56967;43.538;-5.646;2022-07-29T06:13:34;101715.69;;;36.93
69704;BMP280;56967;43.538;-5.646;2022-07-29T06:15:59;101714.13;;;36.49
69704;BMP280;56967;43.538;-5.646;2022-07-29T06:18:25;101718.50;;;36.57
69704;BMP280;56967;43.538;-5.646;2022-07-29T06:20:51;101720.78;;;36.48
69704;BMP280;56967;43.538;-5.646;2022-07-29T06:23:17;101722.06;;;36.61
69704;BMP280;56967;43.538;-5.646;2022-07-29T06:25:43;101722.81;;;36.54
69704;BMP280;56967;43.538;-5.646;2022-07-29T06:28:08;101726.56;;;37.37
69704;BMP280;56967;43.538;-5.646;2022-07-29T06:30:34;101729.47;;;37.00
69704;BMP280;56967;43.538;-5.646;2022-07-29T06:32:59;101733.25;;;38.43
69704;BMP280;56967;43.538;-5.646;2022-07-29T06:35:27;101734.28;;;37.96
69704;BMP280;56967;43.538;-5.646;2022-07-29T06:37:52;101737.56;;;38.82
69704;BMP280;56967;43.538;-5.646;2022-07-29T06:40:18;101744.25;;;39.16
69704;BMP280;56967;43.538;-5.646;2022-07-29T06:43:02;101740.38;;;39.97
69704;BMP280;56967;43.538;-5.646;2022-07-29T06:45:27;101750.41;;;40.31
69704;BMP280;56967;43.538;-5.646;2022-07-29T06:47:53;101761.66;;;40.51
69704;BMP280;56967;43.538;-5.646;2022-07-29T06:50:18;101773.44;;;40.58
69704;BMP280;56967;43.538;-5.646;2022-07-29T06:52:44;101766.09;;;41.82
69704;BMP280;56967;43.538;-5.646;2022-07-29T06:55:10;101771.22;;;42.60
69704;BMP280;56967;43.538;-5.646;2022-07-29T06:57:35;101793.41;;;43.74
69704;BMP280;56967;43.538;-5.646;2022-07-29T07:00:01;101794.06;;;44.90
69704;BMP280;56967;43.538;-5.646;2022-07-29T07:02:29;101782.13;;;44.00
69704;BMP280;56967;43.538;-5.646;2022-07-29T07:04:54;101782.41;;;42.53
69704;BMP280;56967;43.538;-5.646;2022-07-29T07:07:20;101789.75;;;44.12
69704;BMP280;56967;43.538;-5.646;2022-07-29T07:09:45;101796.34;;;44.34
69704;BMP280;56967;43.538;-5.646;2022-07-29T07:12:11;101796.72;;;44.65
69704;BMP280;56967;43.538;-5.646;2022-07-29T07:14:36;101800.78;;;44.76
69704;BMP280;56967;43.538;-5.646;2022-07-29T07:17:02;101797.78;;;43.91
69704;BMP280;56967;43.538;-5.646;2022-07-29T07:19:29;101810.97;;;44.67
69704;BMP280;56967;43.538;-5.646;2022-07-29T07:21:54;101834.16;;;45.30
69704;BMP280;56967;43.538;-5.646;2022-07-29T07:24:20;101825.59;;;44.96
69704;BMP280;56967;43.538;-5.646;2022-07-29T07:26:45;101831.66;;;45.48
69704;BMP280;56967;43.538;-5.646;2022-07-29T07:29:11;101832.84;;;45.47
69704;BMP280;56967;43.538;-5.646;2022-07-29T07:31:37;101824.78;;;46.24
69704;BMP280;56967;43.538;-5.646;2022-07-29T07:34:03;101823.03;;;46.51
69704;BMP280;56967;43.538;-5.646;2022-07-29T07:36:28;101825.44;;;46.28
69704;BMP280;56967;43.538;-5.646;2022-07-29T07:38:54;101815.34;;;46.77
69704;BMP280;56967;43.538;-5.646;2022-07-29T07:41:20;101818.88;;;46.34
69704;BMP280;56967;43.538;-5.646;2022-07-29T07:43:46;101829.34;;;45.71
69704;BMP280;56967;43.538;-5.646;2022-07-29T07:46:11;101818.59;;;46.07
69704;BMP280;56967;43.538;-5.646;2022-07-29T07:48:37;101833.59;;;46.78
69704;BMP280;56967;43.538;-5.646;2022-07-29T07:51:02;101826.66;;;45.80
69704;BMP280;56967;43.538;-5.646;2022-07-29T07:53:28;101835.59;;;47.51
69704;BMP280;56967;43.538;-5.646;2022-07-29T07:55:55;101844.44;;;47.19
69704;BMP280;56967;43.538;-5.646;2022-07-29T07:58:21;101845.59;;;47.09
69704;BMP280;56967;43.538;-5.646;2022-07-29T08:00:46;101839.19;;;45.35
69704;BMP280;56967;43.538;-5.646;2022-07-29T08:03:12;101836.41;;;44.17
69704;BMP280;56967;43.538;-5.646;2022-07-29T08:05:39;101834.91;;;43.42
69704;BMP280;56967;43.538;-5.646;2022-07-29T08:08:05;101826.59;;;44.29
69704;BMP280;56967;43.538;-5.646;2022-07-29T08:10:30;101823.50;;;43.40
69704;BMP280;56967;43.538;-5.646;2022-07-29T08:13:14;101826.19;;;42.35
69704;BMP280;56967;43.538;-5.646;2022-07-29T08:15:40;101820.94;;;42.17
69704;BMP280;56967;43.538;-5.646;2022-07-29T08:18:10;101828.00;;;41.92
69704;BMP280;56967;43.538;-5.646;2022-07-29T08:20:36;101826.41;;;41.31
69704;BMP280;56967;43.538;-5.646;2022-07-29T08:23:05;101820.47;;;41.92
69704;BMP280;56967;43.538;-5.646;2022-07-29T08:25:32;101834.28;;;43.34
69704;BMP280;56967;43.538;-5.646;2022-07-29T08:27:58;101823.91;;;43.58
69704;BMP280;56967;43.538;-5.646;2022-07-29T08:30:24;101843.34;;;43.74
69704;BMP280;56967;43.538;-5.646;2022-07-29T08:32:49;101841.03;;;43.53
69704;BMP280;56967;43.538;-5.646;2022-07-29T08:35:18;101841.09;;;42.18
69704;BMP280;56967;43.538;-5.646;2022-07-29T08:37:44;101846.53;;;41.28
69704;BMP280;56967;43.538;-5.646;2022-07-29T08:40:10;101847.78;;;40.76
69704;BMP280;56967;43.538;-5.646;2022-07-29T08:42:35;101850.28;;;41.07
69704;BMP280;56967;43.538;-5.646;2022-07-29T08:45:02;101850.13;;;40.81
69704;BMP280;56967;43.538;-5.646;2022-07-29T08:47:28;101852.47;;;40.82
69704;BMP280;56967;43.538;-5.646;2022-07-29T08:49:53;101850.28;;;39.91
69704;BMP280;56967;43.538;-5.646;2022-07-29T08:52:19;101862.75;;;41.26
69704;BMP280;56967;43.538;-5.646;2022-07-29T08:54:46;101855.66;;;42.18
69704;BMP280;56967;43.538;-5.646;2022-07-29T08:57:16;101862.84;;;40.68
69704;BMP280;56967;43.538;-5.646;2022-07-29T08:59:42;101865.75;;;42.05
69704;BMP280;56967;43.538;-5.646;2022-07-29T09:02:18;101866.44;;;41.83
69704;BMP280;56967;43.538;-5.646;2022-07-29T09:04:45;101876.25;;;42.44
69704;BMP280;56967;43.538;-5.646;2022-07-29T09:07:14;101875.81;;;41.18
69704;BMP280;56967;43.538;-5.646;2022-07-29T09:09:40;101880.91;;;40.79
69704;BMP280;56967;43.538;-5.646;2022-07-29T09:12:06;101884.41;;;41.31
69704;BMP280;56967;43.538;-5.646;2022-07-29T09:14:33;101882.91;;;41.93
69704;BMP280;56967;43.538;-5.646;2022-07-29T09:16:59;101886.88;;;42.19
69704;BMP280;56967;43.538;-5.646;2022-07-29T09:19:33;101899.28;;;41.77
69704;BMP280;56967;43.538;-5.646;2022-07-29T09:22:04;101891.06;;;42.00
69704;BMP280;56967;43.538;-5.646;2022-07-29T09:24:44;101896.03;;;42.16
69704;BMP280;56967;43.538;-5.646;2022-07-29T09:27:18;101897.03;;;42.29
69704;BMP280;56967;43.538;-5.646;2022-07-29T09:30:18;101893.28;;;42.16
69704;BMP280;56967;43.538;-5.646;2022-07-29T09:33:01;101905.72;;;42.27
69704;BMP280;56967;43.538;-5.646;2022-07-29T09:35:28;101909.50;;;42.90
69704;BMP280;56967;43.538;-5.646;2022-07-29T09:37:54;101934.97;;;43.86
69704;BMP280;56967;43.538;-5.646;2022-07-29T09:40:21;101941.13;;;45.09
69704;BMP280;56967;43.538;-5.646;2022-07-29T09:42:48;101935.47;;;45.70
69704;BMP280;56967;43.538;-5.646;2022-07-29T09:47:53;101960.00;;;47.27
69704;BMP280;56967;43.538;-5.646;2022-07-29T09:50:20;101936.66;;;48.52
69704;BMP280;56967;43.538;-5.646;2022-07-29T09:52:52;101944.13;;;46.93
69704;BMP280;56967;43.538;-5.646;2022-07-29T09:55:19;101946.72;;;48.40
69704;BMP280;56967;43.538;-5.646;2022-07-29T09:57:46;101960.88;;;48.64
69704;BMP280;56967;43.538;-5.646;2022-07-29T10:00:19;101954.16;;;47.55
69704;BMP280;56967;43.538;-5.646;2022-07-29T10:02:48;101952.63;;;47.54
69704;BMP280;56967;43.538;-5.646;2022-07-29T10:05:24;101952.63;;;48.42
69704;BMP280;56967;43.538;-5.646;2022-07-29T10:07:51;101954.03;;;49.01
69704;BMP280;56967;43.538;-5.646;2022-07-29T10:10:24;101955.00;;;47.65
69704;BMP280;56967;43.538;-5.646;2022-07-29T10:12:58;101961.31;;;48.35
69704;BMP280;56967;43.538;-5.646;2022-07-29T10:15:26;101951.44;;;47.00
69704;BMP280;56967;43.538;-5.646;2022-07-29T10:17:53;101957.16;;;46.62
69704;BMP280;56967;43.538;-5.646;2022-07-29T10:20:20;101957.16;;;47.61
69704;BMP280;56967;43.538;-5.646;2022-07-29T10:22:46;101967.00;;;46.17
69704;BMP280;56967;43.538;-5.646;2022-07-29T10:25:12;101971.06;;;47.30
69704;BMP280;56967;43.538;-5.646;2022-07-29T10:27:39;101970.75;;;47.59
69704;BMP280;56967;43.538;-5.646;2022-07-29T10:30:05;101973.28;;;46.67
69704;BMP280;56967;43.538;-5.646;2022-07-29T10:33:04;101974.19;;;47.63
69704;BMP280;56967;43.538;-5.646;2022-07-29T10:38:42;101980.16;;;48.13
69704;BMP280;56967;43.538;-5.646;2022-07-29T10:43:56;101987.69;;;47.00
69704;BMP280;56967;43.538;-5.646;2022-07-29T10:46:22;101987.06;;;47.60
69704;BMP280;56967;43.538;-5.646;2022-07-29T10:49:04;101988.84;;;46.90
69704;BMP280;56967;43.538;-5.646;2022-07-29T10:54:16;101976.69;;;47.61
69704;BMP280;56967;43.538;-5.646;2022-07-29T10:56:42;101970.97;;;47.64
69704;BMP280;56967;43.538;-5.646;2022-07-29T11:01:50;101984.16;;;46.87
69704;BMP280;56967;43.538;-5.646;2022-07-29T11:07:10;101975.84;;;45.74
69704;BMP280;56967;43.538;-5.646;2022-07-29T11:09:36;101959.41;;;44.94
69704;BMP280;56967;43.538;-5.646;2022-07-29T11:12:02;101948.31;;;43.13
69704;BMP280;56967;43.538;-5.646;2022-07-29T11:17:21;101934.84;;;40.91
69704;BMP280;56967;43.538;-5.646;2022-07-29T11:19:47;101933.94;;;41.48
69704;BMP280;56967;43.538;-5.646;2022-07-29T11:22:32;101933.56;;;41.02
69704;BMP280;56967;43.538;-5.646;2022-07-29T11:25:17;101935.22;;;41.37
69704;BMP280;56967;43.538;-5.646;2022-07-29T11:27:44;101931.63;;;40.99
69704;BMP280;56967;43.538;-5.646;2022-07-29T11:30:10;101938.13;;;39.61
69704;BMP280;56967;43.538;-5.646;2022-07-29T11:32:41;101931.03;;;39.60
69704;BMP280;56967;43.538;-5.646;2022-07-29T11:35:19;101930.94;;;40.06
69704;BMP280;56967;43.538;-5.646;2022-07-29T11:41:19;101936.16;;;39.61
69704;BMP280;56967;43.538;-5.646;2022-07-29T11:43:53;101927.50;;;39.52
69704;BMP280;56967;43.538;-5.646;2022-07-29T11:46:45;101928.72;;;39.44
69704;BMP280;56967;43.538;-5.646;2022-07-29T11:49:12;101930.56;;;38.70
69704;BMP280;56967;43.538;-5.646;2022-07-29T11:51:39;101927.88;;;38.06
69704;BMP280;56967;43.538;-5.646;2022-07-29T11:54:08;101920.38;;;38.81
69704;BMP280;56967;43.538;-5.646;2022-07-29T11:56:38;101916.16;;;38.09
69704;BMP280;56967;43.538;-5.646;2022-07-29T11:59:07;101921.22;;;38.07
69704;BMP280;56967;43.538;-5.646;2022-07-29T12:01:35;101933.03;;;37.56
69704;BMP280;56967;43.538;-5.646;2022-07-29T12:04:05;101925.53;;;38.04
69704;BMP280;56967;43.538;-5.646;2022-07-29T12:06:33;101915.44;;;38.26
69704;BMP280;56967;43.538;-5.646;2022-07-29T12:08:59;101923.66;;;37.64
69704;BMP280;56967;43.538;-5.646;2022-07-29T12:11:25;101919.34;;;38.18
69704;BMP280;56967;43.538;-5.646;2022-07-29T12:13:51;101920.97;;;38.29
69704;BMP280;56967;43.538;-5.646;2022-07-29T12:16:17;101924.66;;;38.72
69704;BMP280;56967;43.538;-5.646;2022-07-29T12:18:54;101930.00;;;38.33
69704;BMP280;56967;43.538;-5.646;2022-07-29T12:21:20;101930.91;;;38.65
69704;BMP280;56967;43.538;-5.646;2022-07-29T12:23:52;101928.59;;;38.64
69704;BMP280;56967;43.538;-5.646;2022-07-29T12:26:19;101931.34;;;38.78
69704;BMP280;56967;43.538;-5.646;2022-07-29T12:28:45;101929.28;;;38.47
69704;BMP280;56967;43.538;-5.646;2022-07-29T12:31:14;101929.97;;;38.30
69704;BMP280;56967;43.538;-5.646;2022-07-29T12:33:40;101935.19;;;38.56
69704;BMP280;56967;43.538;-5.646;2022-07-29T12:36:06;101941.69;;;38.13
69704;BMP280;56967;43.538;-5.646;2022-07-29T12:38:33;101936.63;;;38.25
69704;BMP280;56967;43.538;-5.646;2022-07-29T12:41:00;101940.38;;;37.96
69704;BMP280;56967;43.538;-5.646;2022-07-29T12:43:26;101947.28;;;38.34
69704;BMP280;56967;43.538;-5.646;2022-07-29T12:45:53;101945.53;;;38.97
69704;BMP280;56967;43.538;-5.646;2022-07-29T12:48:41;101944.81;;;39.18
69704;BMP280;56967;43.538;-5.646;2022-07-29T12:51:09;101947.78;;;38.53
69704;BMP280;56967;43.538;-5.646;2022-07-29T12:53:38;101942.03;;;38.08
69704;BMP280;56967;43.538;-5.646;2022-07-29T12:56:05;101945.56;;;39.15
69704;BMP280;56967;43.538;-5.646;2022-07-29T13:03:55;101942.03;;;39.04
69704;BMP280;56967;43.538;-5.646;2022-07-29T13:06:41;101953.88;;;39.53
69704;BMP280;56967;43.538;-5.646;2022-07-29T13:09:19;101949.84;;;38.77
69704;BMP280;56967;43.538;-5.646;2022-07-29T13:11:49;101953.22;;;38.36
69704;BMP280;56967;43.538;-5.646;2022-07-29T13:17:11;101951.53;;;37.63
69704;BMP280;56967;43.538;-5.646;2022-07-29T13:22:08;101949.53;;;38.11
69704;BMP280;56967;43.538;-5.646;2022-07-29T13:24:51;101946.44;;;38.23
69704;BMP280;56967;43.538;-5.646;2022-07-29T13:27:19;101949.59;;;38.18
69704;BMP280;56967;43.538;-5.646;2022-07-29T13:29:45;101968.03;;;38.17
69704;BMP280;56967;43.538;-5.646;2022-07-29T13:32:12;101965.94;;;38.75
69704;BMP280;56967;43.538;-5.646;2022-07-29T13:34:38;101957.25;;;38.73
69704;BMP280;56967;43.538;-5.646;2022-07-29T13:37:04;101957.53;;;38.37
69704;BMP280;56967;43.538;-5.646;2022-07-29T13:39:30;101957.03;;;38.14
69704;BMP280;56967;43.538;-5.646;2022-07-29T13:41:55;101958.78;;;38.60
69704;BMP280;56967;43.538;-5.646;2022-07-29T13:44:21;101975.56;;;38.34
69704;BMP280;56967;43.538;-5.646;2022-07-29T13:46:46;101961.69;;;38.95
69704;BMP280;56967;43.538;-5.646;2022-07-29T13:49:12;101969.41;;;38.55
69704;BMP280;56967;43.538;-5.646;2022-07-29T13:51:38;101961.91;;;38.52
69704;BMP280;56967;43.538;-5.646;2022-07-29T13:54:04;101967.59;;;38.15
69704;BMP280;56967;43.538;-5.646;2022-07-29T13:56:30;101974.81;;;37.83
69704;BMP280;56967;43.538;-5.646;2022-07-29T13:58:55;101968.31;;;38.02
69704;BMP280;56967;43.538;-5.646;2022-07-29T14:01:22;101971.81;;;37.95
69704;BMP280;56967;43.538;-5.646;2022-07-29T14:03:49;101969.44;;;37.97
69704;BMP280;56967;43.538;-5.646;2022-07-29T14:06:15;101964.59;;;38.38
69704;BMP280;56967;43.538;-5.646;2022-07-29T14:08:41;101965.78;;;38.40
69704;BMP280;56967;43.538;-5.646;2022-07-29T14:11:06;101977.59;;;37.39
69704;BMP280;56967;43.538;-5.646;2022-07-29T14:13:32;101972.31;;;38.15
69704;BMP280;56967;43.538;-5.646;2022-07-29T14:15:58;101964.09;;;38.18
69704;BMP280;56967;43.538;-5.646;2022-07-29T14:18:23;101967.53;;;38.73
69704;BMP280;56967;43.538;-5.646;2022-07-29T14:20:49;101972.81;;;38.31
69704;BMP280;56967;43.538;-5.646;2022-07-29T14:23:16;101971.56;;;38.18
69704;BMP280;56967;43.538;-5.646;2022-07-29T14:25:42;101978.78;;;37.82
69704;BMP280;56967;43.538;-5.646;2022-07-29T14:28:07;101974.34;;;37.74
69704;BMP280;56967;43.538;-5.646;2022-07-29T14:30:33;101966.59;;;38.41
69704;BMP280;56967;43.538;-5.646;2022-07-29T14:32:59;101978.22;;;38.13